Terminal Aerodrome Forecast
Issued by NWS

Home | Current Version | Previous Version | Text Only | Print | Product List | Glossary On
Versions: 1 2 3 4 5 6 7 8 9 10 11 12
511
FTUS44 KBMX 270540
TAFEET
TAF
KEET 270540Z 2706/2806 13005KT 6SM FU SCT100 SCT250
     FM270900 13005KT P6SM SCT100 SCT250
     FM271400 12006KT P6SM OVC060 PROB30 2715/2717 36010KT 4SM SHRA
      OVC040
     FM271700 11007KT 6SM SHRA BR BKN025 OVC050
     FM272100 11006KT P6SM VCSH BKN020 OVC040
     FM280300 13005KT 4SM BR BKN007=

USA.gov is the U.S. government's official web portal to all federal, state and local government web resources and services.